Time;durP1;ratioP1;P1;durP2;ratioP2;P2;SDS_P1;SDS_P2;PMS_P1;PMS_P2;Temp;Humidity;BMP_temperature;BMP_pressure;BME280_temperature;BME280_humidity;BME280_pressure;Samples;Min_cycle;Max_cycle;Signal;HPM_P1;HPM_P2
2023/11/01 00:00:43;;;;;;;80.47;60.05;;;;;;;16.30;100.00;102641.72;5009917;28;20060;-69
2023/11/01 00:03:08;;;;;;;83.78;59.20;;;;;;;15.46;100.00;102566.25;5017302;28;20036;-70
2023/11/01 00:05:34;;;;;;;81.80;58.17;;;;;;;15.55;100.00;102562.75;5017009;28;20528;-71
2023/11/01 00:07:59;;;;;;;76.53;57.47;;;;;;;15.81;100.00;102577.94;5015485;28;20574;-71
2023/11/01 00:10:25;;;;;;;79.35;56.63;;;;;;;16.15;100.00;102623.88;5010567;28;20033;-71
2023/11/01 00:12:50;;;;;;;75.63;55.28;;;;;;;15.84;100.00;102594.19;5008951;28;20034;-69
2023/11/01 00:15:16;;;;;;;79.75;56.20;;;;;;;15.77;100.00;102584.00;5017877;28;20397;-71
2023/11/01 00:17:41;;;;;;;81.45;56.78;;;;;;;16.05;100.00;102647.06;5021306;28;20037;-70
2023/11/01 00:20:07;;;;;;;77.25;57.03;;;;;;;16.18;100.00;102652.06;5019292;28;20087;-71
2023/11/01 00:22:33;;;;;;;82.97;58.22;;;;;;;15.33;100.00;102550.91;5017142;28;20540;-70
2023/11/01 00:25:00;;;;;;;84.35;59.78;;;;;;;16.18;100.00;102652.06;5016660;28;20108;-71
2023/11/01 00:27:26;;;;;;;84.80;65.28;;;;;;;15.87;100.00;102645.47;5019013;28;20493;-70
2023/11/01 00:29:52;;;;;;;90.63;65.05;;;;;;;15.96;100.00;102680.50;5008255;28;20557;-70
2023/11/01 00:32:17;;;;;;;92.22;64.97;;;;;;;16.00;100.00;102679.63;5019456;28;20030;-70
2023/11/01 00:34:43;;;;;;;93.22;69.18;;;;;;;15.87;100.00;102665.13;5009075;28;20412;-70
2023/11/01 00:37:09;;;;;;;94.97;68.97;;;;;;;15.69;100.00;102640.47;5006911;28;20524;-70
2023/11/01 00:39:34;;;;;;;94.00;66.93;;;;;;;15.94;100.00;102679.66;5022000;28;20119;-70
2023/11/01 00:42:00;;;;;;;91.53;69.55;;;;;;;15.99;100.00;102663.34;5013516;28;20030;-69
2023/11/01 00:44:25;;;;;;;97.03;71.18;;;;;;;15.37;100.00;102591.06;5009645;28;20032;-69
2023/11/01 00:46:50;;;;;;;100.05;72.43;;;;;;;15.72;100.00;102583.16;5020640;28;20026;-70
2023/11/01 00:49:16;;;;;;;98.55;72.82;;;;;;;16.04;100.00;102627.41;5008207;28;20029;-70
2023/11/01 00:51:41;;;;;;;105.32;76.60;;;;;;;15.63;100.00;102592.63;5016871;28;20166;-70
2023/11/01 00:54:07;;;;;;;100.22;76.28;;;;;;;15.87;100.00;102596.72;5008687;28;20026;-70
2023/11/01 00:56:32;;;;;;;101.15;76.25;;;;;;;15.87;100.00;102593.28;5011988;28;20051;-71
2023/11/01 00:58:57;;;;;;;106.13;78.78;;;;;;;15.74;100.00;102572.03;5018832;28;20084;-69
2023/11/01 01:01:23;;;;;;;104.35;78.45;;;;;;;15.70;100.00;102551.53;5015180;28;20041;-69
2023/11/01 01:03:48;;;;;;;104.78;77.30;;;;;;;15.87;100.00;102532.56;5017658;28;20068;-70
2023/11/01 01:06:14;;;;;;;103.75;77.18;;;;;;;15.60;100.00;102515.72;5018965;28;20025;-70
2023/11/01 01:08:39;;;;;;;108.63;77.30;;;;;;;15.51;100.00;102508.06;5021494;28;20068;-70
2023/11/01 01:11:05;;;;;;;103.72;78.13;;;;;;;15.75;100.00;102522.41;5007694;28;20037;-70
2023/11/01 01:13:31;;;;;;;104.68;76.95;;;;;;;15.60;100.00;102490.06;5019018;28;20098;-70
2023/11/01 01:15:56;;;;;;;101.45;76.95;;;;;;;15.88;100.00;102526.59;5020224;28;20116;-69
2023/11/01 01:18:22;;;;;;;104.03;78.45;;;;;;;15.87;100.00;102522.31;5021048;28;20026;-70
2023/11/01 01:20:47;;;;;;;103.95;74.68;;;;;;;15.94;100.00;102505.16;5013275;28;20033;-69
2023/11/01 01:23:13;;;;;;;107.80;75.72;;;;;;;15.79;100.00;102487.31;5017710;28;20087;-69
2023/11/01 01:25:39;;;;;;;98.00;76.05;;;;;;;15.46;100.00;102362.81;5006680;28;20046;-70
2023/11/01 01:28:04;;;;;;;101.40;76.07;;;;;;;15.83;100.00;102406.88;5007031;28;20091;-70
2023/11/01 01:30:30;;;;;;;104.95;78.30;;;;;;;15.60;100.00;102341.31;5011512;28;20099;-70
2023/11/01 01:32:55;;;;;;;103.75;75.03;;;;;;;15.75;100.00;102285.59;5014356;28;20408;-69
2023/11/01 01:35:23;;;;;;;103.85;75.40;;;;;;;15.95;100.00;102348.59;5018556;28;20037;-69
2023/11/01 01:37:48;;;;;;;99.95;74.32;;;;;;;15.93;100.00;102345.19;5015869;28;20030;-70
2023/11/01 01:40:15;;;;;;;98.80;73.25;;;;;;;15.88;100.00;102334.16;5014152;28;20048;-69
2023/11/01 01:42:40;;;;;;;102.38;75.57;;;;;;;15.36;100.00;102246.66;5013862;28;20517;-70
2023/11/01 01:45:06;;;;;;;102.40;75.55;;;;;;;15.37;100.00;102194.50;5017833;28;20037;-70
2023/11/01 01:47:33;;;;;;;98.82;74.30;;;;;;;15.64;100.00;102249.78;5017279;28;20028;-70
2023/11/01 01:50:00;;;;;;;101.35;75.40;;;;;;;15.21;100.00;102221.19;5013364;28;20030;-70
2023/11/01 01:52:26;;;;;;;99.70;73.82;;;;;;;15.59;100.00;102098.53;5020916;28;20483;-70
2023/11/01 01:54:52;;;;;;;101.88;75.95;;;;;;;15.36;100.00;102085.16;5015318;28;20040;-70
2023/11/01 01:57:25;;;;;;;104.32;77.90;;;;;;;15.45;100.00;102048.34;5019241;28;20408;-70
2023/11/01 01:59:56;;;;;;;97.72;71.78;;;;;;;15.16;100.00;102035.88;5015615;28;20029;-69
2023/11/01 02:02:23;;;;;;;95.80;72.82;;;;;;;15.00;100.00;101967.78;5015910;28;20040;-69
2023/11/01 02:04:49;;;;;;;101.32;73.28;;;;;;;15.55;100.00;102071.25;5019474;28;20062;-70
2023/11/01 02:07:15;;;;;;;99.50;75.85;;;;;;;15.31;100.00;101991.25;5012808;28;20108;-70
2023/11/01 02:09:40;;;;;;;109.25;80.25;;;;;;;15.22;100.00;101948.66;5006120;28;20121;-71
2023/11/01 02:12:06;;;;;;;103.70;79.13;;;;;;;14.98;100.00;101913.16;5016744;28;20037;-71
2023/11/01 02:14:31;;;;;;;106.32;79.97;;;;;;;15.27;100.00;101877.66;5003636;28;20045;-71
2023/11/01 02:16:57;;;;;;;109.70;80.57;;;;;;;15.07;100.00;101948.91;5006949;28;20511;-70
2023/11/01 02:19:23;;;;;;;109.60;80.57;;;;;;;15.08;100.00;101965.09;5004927;28;20026;-70
2023/11/01 02:21:49;;;;;;;107.00;80.25;;;;;;;14.90;100.00;101889.38;5005149;28;20034;-70
2023/11/01 02:24:14;;;;;;;104.75;77.65;;;;;;;14.48;100.00;101836.25;5006783;28;20044;-70
2023/11/01 02:26:40;;;;;;;102.13;76.63;;;;;;;14.91;100.00;101644.34;5006463;28;20037;-70
2023/11/01 02:29:11;;;;;;;102.28;73.22;;;;;;;14.97;100.00;101595.56;5006725;28;20026;-70
2023/11/01 02:31:36;;;;;;;91.70;66.65;;;;;;;14.84;100.00;101468.63;5007140;28;20507;-70
2023/11/01 02:34:02;;;;;;;90.07;65.65;;;;;;;15.17;100.00;101386.72;5006282;28;20041;-70
2023/11/01 02:36:27;;;;;;;86.78;64.47;;;;;;;15.38;100.00;101323.88;5006064;28;20029;-70
2023/11/01 02:38:52;;;;;;;84.25;61.35;;;;;;;15.28;100.00;101456.53;5006301;28;20480;-71
2023/11/01 02:41:18;;;;;;;85.03;60.97;;;;;;;15.46;100.00;101478.34;5004887;28;20037;-71
2023/11/01 02:43:43;;;;;;;83.53;60.78;;;;;;;15.38;100.00;101426.38;5009083;28;20026;-70
2023/11/01 02:46:09;;;;;;;81.10;58.75;;;;;;;15.26;100.00;101386.53;5010559;28;20473;-70
2023/11/01 02:48:34;;;;;;;81.68;60.05;;;;;;;15.47;100.00;101380.88;5010143;28;20429;-71
2023/11/01 02:50:59;;;;;;;78.82;58.95;;;;;;;15.35;100.00;101350.41;5007997;28;20037;-70
2023/11/01 02:53:25;;;;;;;80.97;59.63;;;;;;;15.61;100.00;101386.50;5010388;28;20046;-70
2023/11/01 02:55:51;;;;;;;86.25;60.88;;;;;;;15.57;100.00;101336.19;5009894;28;20037;-70
2023/11/01 02:58:16;;;;;;;81.03;56.75;;;;;;;14.94;100.00;101219.97;5010307;28;20034;-70
2023/11/01 03:00:42;;;;;;;73.80;55.13;;;;;;;15.15;100.00;101190.41;5009922;28;20026;-69
2023/11/01 03:03:08;;;;;;;80.60;57.33;;;;;;;15.80;100.00;101271.47;5009768;28;20045;-70
2023/11/01 03:05:34;;;;;;;76.82;57.42;;;;;;;15.38;100.00;101150.44;5008038;28;20029;-71
2023/11/01 03:07:59;;;;;;;73.80;57.47;;;;;;;15.73;100.00;101197.31;5010036;28;20511;-70
2023/11/01 03:10:25;;;;;;;81.70;58.00;;;;;;;15.85;100.00;101179.81;5010026;28;20030;-70
2023/11/01 03:12:50;;;;;;;76.95;55.63;;;;;;;15.55;100.00;101120.03;5009985;28;20038;-71
2023/11/01 03:15:16;;;;;;;78.82;58.47;;;;;;;15.65;100.00;101165.94;5021107;28;20052;-70
2023/11/01 03:17:42;;;;;;;80.30;58.47;;;;;;;15.18;100.00;101075.84;5021836;28;20032;-70
2023/11/01 03:20:08;;;;;;;78.20;57.65;;;;;;;15.57;100.00;101120.00;5021521;28;20037;-70
2023/11/01 03:22:34;;;;;;;81.43;60.50;;;;;;;15.39;100.00;101082.91;5016005;28;20034;-70
2023/11/01 03:25:00;;;;;;;80.45;60.17;;;;;;;15.77;100.00;101106.59;5007843;28;20037;-69
2023/11/01 03:27:25;;;;;;;82.50;60.67;;;;;;;15.04;100.00;101013.94;5023112;28;20033;-70
2023/11/01 03:29:55;;;;;;;84.68;59.70;;;;;;;15.53;100.00;101077.38;5021581;28;20030;-71
2023/11/01 03:32:22;;;;;;;82.10;61.30;;;;;;;14.97;100.00;100996.25;5020159;28;20037;-70
2023/11/01 03:34:48;;;;;;;84.70;62.47;;;;;;;15.23;100.00;101032.19;5017363;28;20084;-70
2023/11/01 03:37:14;;;;;;;84.20;62.00;;;;;;;15.36;100.00;101051.41;5021617;28;20076;-70
2023/11/01 03:39:39;;;;;;;84.93;64.00;;;;;;;15.13;100.00;101003.41;5022717;28;20029;-70
2023/11/01 03:42:04;;;;;;;83.60;64.85;;;;;;;14.80;100.00;100932.72;5007783;28;20416;-70
2023/11/01 03:44:32;;;;;;;85.75;66.47;;;;;;;14.94;100.00;100930.59;5016765;28;20029;-70
2023/11/01 03:46:58;;;;;;;88.20;64.32;;;;;;;15.04;100.00;100887.59;5020168;28;20029;-70
2023/11/01 03:49:29;;;;;;;83.60;62.13;;;;;;;15.19;100.00;100917.88;5018232;28;20496;-71
2023/11/01 03:51:58;;;;;;;82.53;64.43;;;;;;;15.10;100.00;100901.06;5021176;28;20032;-70
2023/11/01 03:54:23;;;;;;;84.68;63.88;;;;;;;14.73;100.00;100824.56;5018898;28;20041;-71
2023/11/01 03:56:49;;;;;;;91.00;63.03;;;;;;;14.94;100.00;100840.97;5013445;28;20029;-70
2023/11/01 03:59:14;;;;;;;85.05;63.13;;;;;;;15.21;100.00;100844.38;5007032;28;20474;-72
2023/11/01 04:01:40;;;;;;;83.20;61.85;;;;;;;14.92;100.00;100800.91;5014704;28;20409;-71
2023/11/01 04:04:05;;;;;;;85.47;62.85;;;;;;;14.80;100.00;100791.09;5019448;28;20057;-70
2023/11/01 04:06:31;;;;;;;86.75;63.33;;;;;;;15.13;100.00;100857.41;5016780;28;20033;-71
2023/11/01 04:08:56;;;;;;;85.45;62.45;;;;;;;14.96;100.00;100846.88;5017911;28;20040;-71
2023/11/01 04:11:22;;;;;;;84.18;62.45;;;;;;;15.19;100.00;100826.47;5006660;28;20034;-70
2023/11/01 04:13:49;;;;;;;82.55;62.50;;;;;;;14.77;100.00;100810.78;5020864;28;20516;-70
2023/11/01 04:16:14;;;;;;;80.18;60.60;;;;;;;15.08;100.00;100866.13;5016629;28;20060;-71
2023/11/01 04:18:40;;;;;;;81.47;60.00;;;;;;;15.36;100.00;100861.78;5019841;28;20457;-71
2023/11/01 04:21:05;;;;;;;77.00;56.50;;;;;;;14.90;100.00;100803.53;5015318;28;20030;-72
2023/11/01 04:23:31;;;;;;;78.85;58.63;;;;;;;15.03;100.00;100806.53;5017262;28;20409;-70
2023/11/01 04:25:56;;;;;;;78.82;58.58;;;;;;;15.17;100.00;100853.03;5021779;28;20052;-71
2023/11/01 04:28:22;;;;;;;71.47;51.63;;;;;;;15.47;100.00;100865.69;5007839;28;20043;-71
2023/11/01 04:30:47;;;;;;;68.35;50.38;;;;;;;15.32;100.00;100855.09;5007309;28;20025;-70
2023/11/01 04:33:12;;;;;;;64.15;44.30;;;;;;;15.61;100.00;100854.97;5015343;28;20514;-70
2023/11/01 04:35:38;;;;;;;58.38;41.60;;;;;;;15.94;100.00;100917.91;5015623;28;20029;-71
2023/11/01 04:38:04;;;;;;;54.47;39.95;;;;;;;15.86;100.00;100919.91;5018128;28;20037;-71
2023/11/01 04:40:29;;;;;;;53.67;38.28;;;;;;;15.68;100.00;100891.47;5017991;28;20018;-72
2023/11/01 04:42:55;;;;;;;52.25;36.20;;;;;;;15.57;100.00;100894.41;5018876;28;20040;-72
2023/11/01 04:45:21;;;;;;;39.28;28.55;;;;;;;16.35;100.00;100978.88;5019998;28;20037;-71
2023/11/01 04:47:46;;;;;;;51.17;34.47;;;;;;;16.19;100.00;100987.16;5020772;28;20025;-72
2023/11/01 04:50:14;;;;;;;56.80;42.30;;;;;;;15.45;100.00;100936.66;5004036;28;20033;-71
2023/11/01 04:52:41;;;;;;;64.28;46.67;;;;;;;15.79;100.00;101022.72;5014656;28;20033;-73
2023/11/01 04:55:08;;;;;;;65.00;46.92;;;;;;;15.42;100.00;100982.91;5013217;28;20061;-73
2023/11/01 04:57:34;;;;;;;61.78;45.28;;;;;;;15.79;100.00;101040.69;5007484;28;20587;-72
2023/11/01 05:00:11;;;;;;;67.20;48.13;;;;;;;15.51;100.00;101038.16;5006877;28;20045;-72
2023/11/01 05:02:37;;;;;;;64.32;48.03;;;;;;;15.46;100.00;101048.56;5009383;28;20041;-72
2023/11/01 05:05:05;;;;;;;62.92;48.17;;;;;;;15.28;100.00;101035.44;5018958;28;20029;-71
2023/11/01 05:07:32;;;;;;;73.18;48.97;;;;;;;15.51;100.00;101079.16;5016645;28;20501;-72
2023/11/01 05:09:57;;;;;;;68.70;50.00;;;;;;;15.35;100.00;101055.69;5013220;28;20607;-71
2023/11/01 05:12:23;;;;;;;67.03;50.50;;;;;;;15.57;100.00;101105.47;5014886;28;20037;-71
2023/11/01 05:14:48;;;;;;;70.78;49.95;;;;;;;15.70;100.00;101131.56;5005596;28;20041;-72
2023/11/01 05:17:14;;;;;;;70.65;50.63;;;;;;;15.42;100.00;101099.94;5007067;28;20037;-72
2023/11/01 05:19:39;;;;;;;70.80;49.90;;;;;;;15.75;100.00;101159.66;5007168;28;20507;-71
2023/11/01 05:22:05;;;;;;;70.95;52.35;;;;;;;15.63;100.00;101170.28;5007459;28;20042;-71
2023/11/01 05:24:31;;;;;;;75.25;53.78;;;;;;;15.36;100.00;101175.28;5007141;28;20511;-73
2023/11/01 05:26:56;;;;;;;67.50;50.72;;;;;;;15.47;100.00;101195.47;5007692;28;20077;-72
2023/11/01 05:29:22;;;;;;;69.15;51.15;;;;;;;15.32;100.00;101198.44;5007516;28;20033;-71
2023/11/01 05:31:47;;;;;;;66.32;51.78;;;;;;;15.13;100.00;101153.75;5007315;28;20121;-73
2023/11/01 05:34:12;;;;;;;70.50;50.03;;;;;;;15.36;100.00;101182.09;5005945;28;20026;-71
2023/11/01 05:36:38;;;;;;;66.20;49.67;;;;;;;15.32;100.00;101189.03;5006982;28;20524;-72
2023/11/01 05:39:05;;;;;;;67.47;47.90;;;;;;;15.62;100.00;101261.72;5005536;28;20119;-71
2023/11/01 05:41:32;;;;;;;67.10;49.70;;;;;;;15.46;100.00;101227.13;5007058;28;20034;-71
2023/11/01 05:43:58;;;;;;;66.53;48.97;;;;;;;15.85;100.00;101279.84;5003296;28;20493;-71
2023/11/01 05:46:23;;;;;;;64.07;46.65;;;;;;;16.35;100.00;101304.03;5007620;28;20030;-74
2023/11/01 05:48:49;;;;;;;65.78;47.70;;;;;;;16.97;100.00;101323.50;5007105;28;20477;-71
2023/11/01 05:51:14;;;;;;;74.60;47.08;;;;;;;16.06;100.00;101315.16;5007854;28;20032;-72
2023/11/01 05:53:40;;;;;;;68.80;44.83;;;;;;;16.06;100.00;101357.94;5007737;28;20044;-74
2023/11/01 05:56:05;;;;;;;65.82;45.40;;;;;;;15.74;100.00;101328.06;5007585;28;20034;-71
2023/11/01 05:58:31;;;;;;;63.10;45.33;;;;;;;15.77;100.00;101345.09;5006867;28;20046;-73
2023/11/01 06:00:58;;;;;;;68.53;44.53;;;;;;;15.95;100.00;101395.84;5007121;28;20091;-70
2023/11/01 06:03:26;;;;;;;63.92;44.67;;;;;;;16.33;100.00;101488.91;5002639;28;20037;-70
2023/11/01 06:05:52;;;;;;;62.53;41.75;;;;;;;16.07;100.00;101464.81;5006761;28;20505;-70
2023/11/01 06:08:18;;;;;;;61.50;40.60;;;;;;;16.40;100.00;101571.75;5004627;28;20511;-71
2023/11/01 06:10:44;;;;;;;56.10;37.17;;;;;;;16.57;100.00;101674.88;5006101;28;20038;-71
2023/11/01 06:13:10;;;;;;;52.67;36.55;;;;;;;16.53;100.00;101728.91;5004487;28;20517;-70
2023/11/01 06:15:36;;;;;;;54.17;34.63;;;;;;;16.82;100.00;101812.09;5007576;28;20069;-71
2023/11/01 06:18:05;;;;;;;42.50;28.20;;;;;;;16.41;100.00;101909.75;5010689;28;20117;-71
2023/11/01 06:20:31;;;;;;;42.28;28.42;;;;;;;16.93;100.00;102194.75;5010413;28;20053;-70
2023/11/01 06:22:58;;;;;;;40.72;26.95;;;;;;;17.29;100.00;102701.53;5010645;28;20030;-70
2023/11/01 06:25:23;;;;;;;39.03;26.98;;;;;;;20.77;100.00;103220.88;5009436;28;20036;-70
2023/11/01 06:27:49;;;;;;;44.15;27.42;;;;;;;22.13;100.00;103726.22;5010315;28;20034;-70
2023/11/01 06:30:14;;;;;;;40.70;28.23;;;;;;;18.54;100.00;103646.59;5010415;28;20120;-70
2023/11/01 06:32:40;;;;;;;39.40;30.20;;;;;;;18.33;100.00;103625.97;5010084;28;20030;-70
2023/11/01 06:35:06;;;;;;;39.78;29.20;;;;;;;17.75;100.00;103597.66;5009036;28;20032;-69
2023/11/01 06:37:31;;;;;;;44.80;30.88;;;;;;;18.17;100.00;103589.91;5009771;28;20516;-71
2023/11/01 06:39:57;;;;;;;42.70;30.17;;;;;;;18.21;100.00;103456.78;5007882;28;20473;-70
2023/11/01 06:42:22;;;;;;;43.95;29.63;;;;;;;17.94;100.00;103383.06;5009773;28;20031;-70
2023/11/01 06:44:48;;;;;;;43.17;28.73;;;;;;;18.20;100.00;103382.97;5008296;28;20030;-70
2023/11/01 06:47:13;;;;;;;40.05;27.73;;;;;;;17.64;100.00;103325.66;5009610;28;20052;-70
2023/11/01 06:49:38;;;;;;;36.97;27.42;;;;;;;18.27;100.00;103365.72;5009827;28;20038;-69
2023/11/01 06:52:07;;;;;;;36.60;26.13;;;;;;;17.90;100.00;103313.56;5009316;28;20021;-69
2023/11/01 06:54:34;;;;;;;39.65;26.67;;;;;;;18.34;100.00;103364.84;5008053;28;20038;-69
2023/11/01 06:57:00;;;;;;;36.97;26.60;;;;;;;18.15;100.00;103320.28;5009819;28;20042;-70
2023/11/01 06:59:25;;;;;;;40.50;28.92;;;;;;;18.24;100.00;103327.13;5010265;28;20153;-70
2023/11/01 07:01:51;;;;;;;42.25;29.80;;;;;;;18.47;100.00;103361.34;5009153;28;20128;-69
2023/11/01 07:04:17;;;;;;;42.67;29.48;;;;;;;19.18;100.00;103525.94;5008418;28;20176;-70
2023/11/01 07:06:42;;;;;;;39.42;28.88;;;;;;;19.17;100.00;104303.63;5009817;28;20030;-70
2023/11/01 07:09:09;;;;;;;50.97;30.63;;;;;;;19.17;100.00;104294.16;5010242;28;20108;-70
2023/11/01 07:11:34;;;;;;;41.88;29.33;;;;;;;19.50;100.00;104324.47;5009676;28;20400;-70
2023/11/01 07:14:00;;;;;;;42.13;30.52;;;;;;;19.68;100.00;104397.75;5016933;28;20117;-71
2023/11/01 07:16:25;;;;;;;38.97;29.23;;;;;;;19.40;100.00;104317.53;5009251;28;20037;-70
2023/11/01 07:18:51;;;;;;;37.72;28.23;;;;;;;19.59;100.00;104260.81;5017022;28;20041;-69
2023/11/01 07:21:16;;;;;;;39.05;27.52;;;;;;;19.27;100.00;104150.50;5018824;28;20025;-70
2023/11/01 07:23:43;;;;;;;38.55;29.13;;;;;;;19.46;100.00;104083.47;5010157;28;20072;-70
2023/11/01 07:26:09;;;;;;;37.47;27.88;;;;;;;19.48;100.00;103977.59;5015819;28;20088;-69
2023/11/01 07:28:35;;;;;;;37.90;27.02;;;;;;;18.75;100.00;103848.56;5009182;28;20496;-69
2023/11/01 07:31:00;;;;;;;33.10;23.42;;;;;;;19.36;100.00;103916.50;5020890;28;20034;-69
2023/11/01 07:33:25;;;;;;;29.08;19.63;;;;;;;18.99;100.00;103827.88;5008796;28;20164;-70
2023/11/01 07:35:51;;;;;;;25.27;18.70;;;;;;;19.26;100.00;103857.09;5017535;28;20515;-70
2023/11/01 07:38:16;;;;;;;27.27;19.25;;;;;;;18.98;100.00;103797.81;5019923;28;20029;-70
2023/11/01 07:40:42;;;;;;;23.67;17.88;;;;;;;19.25;100.00;103840.78;5008958;28;20096;-70
2023/11/01 07:43:07;;;;;;;23.45;18.25;;;;;;;18.96;100.00;103790.91;5021452;28;20044;-69
2023/11/01 07:45:33;;;;;;;23.58;17.40;;;;;;;18.99;100.00;103806.41;5020537;28;20412;-68
2023/11/01 07:47:58;;;;;;;25.80;18.23;;;;;;;18.79;100.00;103767.75;5017309;28;20099;-68
2023/11/01 07:50:24;;;;;;;27.05;18.05;;;;;;;19.22;100.00;103814.97;5007941;28;20400;-68
2023/11/01 07:52:50;;;;;;;30.27;19.15;;;;;;;19.67;100.00;103850.16;5006677;28;20034;-69
2023/11/01 07:55:15;;;;;;;28.58;17.67;;;;;;;19.89;100.00;103833.69;5019873;28;20167;-72
2023/11/01 07:57:41;;;;;;;25.85;16.55;;;;;;;19.43;100.00;103758.13;5018984;28;21605;-70
2023/11/01 08:00:07;;;;;;;30.55;16.83;;;;;;;19.86;100.00;103788.09;5019518;28;20018;-70
2023/11/01 08:02:33;;;;;;;25.55;15.38;;;;;;;19.70;100.00;103690.00;5022171;28;20381;-70
2023/11/01 08:04:59;;;;;;;17.85;13.43;;;;;;;19.33;100.00;103570.59;5015919;28;20125;-70
2023/11/01 08:07:25;;;;;;;16.73;11.73;;;;;;;20.01;100.00;103557.16;5011417;28;20060;-69
2023/11/01 08:09:51;;;;;;;21.08;12.90;;;;;;;20.39;100.00;103490.41;5016343;28;20037;-70
2023/11/01 08:12:17;;;;;;;22.17;12.73;;;;;;;19.94;100.00;103400.50;5015572;28;20099;-70
2023/11/01 08:14:43;;;;;;;20.88;13.10;;;;;;;20.27;100.00;103394.91;5006838;28;20065;-70
2023/11/01 08:17:09;;;;;;;24.35;12.68;;;;;;;20.06;100.00;103317.66;5006463;28;20520;-70
2023/11/01 08:19:35;;;;;;;19.73;12.18;;;;;;;20.30;100.00;103300.97;5018862;28;20073;-70
2023/11/01 08:22:01;;;;;;;22.52;13.73;;;;;;;20.40;100.00;103218.06;5008204;28;20030;-70
2023/11/01 08:24:27;;;;;;;16.15;10.55;;;;;;;20.35;100.00;103191.44;5018232;28;20421;-70
2023/11/01 08:26:52;;;;;;;15.05;9.90;;;;;;;20.62;100.00;102663.41;5020422;28;20064;-70
2023/11/01 08:29:18;;;;;;;18.70;9.77;;;;;;;20.88;100.00;102114.31;5007471;28;20500;-69
2023/11/01 08:31:44;;;;;;;19.15;11.07;;;;;;;20.79;100.00;102055.16;5005248;28;20076;-69
2023/11/01 08:34:09;;;;;;;17.88;11.40;;;;;;;20.88;100.00;101984.16;5006988;28;20054;-71
2023/11/01 08:36:34;;;;;;;24.33;11.10;;;;;;;20.74;100.00;101962.25;5015584;28;20042;-71
2023/11/01 08:39:00;;;;;;;23.70;11.60;;;;;;;20.99;100.00;101963.88;5015723;28;20029;-72
2023/11/01 08:41:25;;;;;;;17.05;10.98;;;;;;;20.81;100.00;101918.03;5018655;28;20100;-70
2023/11/01 08:43:51;;;;;;;17.92;10.65;;;;;;;20.92;100.00;101896.00;5016605;28;20125;-71
2023/11/01 08:46:16;;;;;;;21.15;11.05;;;;;;;20.55;100.00;101821.66;5011374;28;20457;-69
2023/11/01 08:48:42;;;;;;;18.08;11.32;;;;;;;20.91;100.00;101837.44;5014744;28;20574;-70
2023/11/01 08:51:08;;;;;;;19.55;11.68;;;;;;;20.40;100.00;101773.16;5006414;28;20041;-70
2023/11/01 08:53:36;;;;;;;19.88;11.25;;;;;;;20.50;100.00;101794.31;5014890;28;20113;-70
2023/11/01 08:56:02;;;;;;;20.55;11.10;;;;;;;20.57;100.00;101801.78;5002457;28;20034;-69
2023/11/01 08:58:27;;;;;;;19.55;10.70;;;;;;;20.87;100.00;101815.19;5006611;28;20152;-69
2023/11/01 09:00:52;;;;;;;20.70;10.70;;;;;;;20.82;100.00;101786.09;5016983;28;20037;-69
2023/11/01 09:03:18;;;;;;;19.05;10.52;;;;;;;20.32;100.00;101715.75;5015759;28;20035;-70
2023/11/01 09:05:43;;;;;;;19.83;11.02;;;;;;;20.87;100.00;101773.81;5014919;28;20042;-70
2023/11/01 09:08:09;;;;;;;19.83;10.77;;;;;;;20.80;100.00;101725.81;5012270;28;20393;-70
2023/11/01 09:10:34;;;;;;;20.02;10.73;;;;;;;21.27;100.00;101729.81;5020394;28;20106;-72
2023/11/01 09:13:00;;;;;;;34.40;11.30;;;;;;;21.45;100.00;101694.53;5015048;28;20084;-70
2023/11/01 09:15:25;;;;;;;24.83;11.02;;;;;;;21.42;100.00;101627.38;5019321;28;20033;-70
2023/11/01 09:17:50;;;;;;;15.82;10.20;;;;;;;21.82;100.00;101572.81;5013101;28;20456;-70
2023/11/01 09:20:16;;;;;;;18.27;10.38;;;;;;;22.07;100.00;101529.22;5015431;28;20089;-71
2023/11/01 09:22:41;;;;;;;15.57;10.25;;;;;;;22.15;100.00;101466.63;5007306;28;20522;-70
2023/11/01 09:25:08;;;;;;;20.38;10.25;;;;;;;21.68;100.00;101349.91;5015118;28;20542;-70
2023/11/01 09:27:33;;;;;;;18.55;10.27;;;;;;;22.35;100.00;101381.75;5020545;28;20037;-70
2023/11/01 09:29:59;;;;;;;18.65;10.60;;;;;;;22.60;100.00;101344.13;5009109;28;20415;-69
2023/11/01 09:32:24;;;;;;;15.88;9.32;;;;;;;22.53;100.00;101271.00;5018708;28;20034;-70
2023/11/01 09:34:49;;;;;;;17.98;9.13;;;;;;;22.61;100.00;101278.38;5014129;28;20112;-71
2023/11/01 09:37:15;;;;;;;18.58;8.70;;;;;;;22.49;100.00;101234.94;5013696;28;20033;-70
2023/11/01 09:39:40;;;;;;;14.98;8.80;;;;;;;22.46;100.00;101193.66;5007351;28;20033;-70
2023/11/01 09:42:15;;;;;;;13.52;8.27;;;;;;;22.47;100.00;101171.97;5018421;28;20037;-69
2023/11/01 09:44:40;;;;;;;16.38;8.82;;;;;;;22.96;100.00;101201.91;5006769;28;20131;-70
2023/11/01 09:47:06;;;;;;;15.25;8.98;;;;;;;23.46;100.00;101194.53;4999764;28;21864;-70
2023/11/01 09:49:31;;;;;;;14.77;8.80;;;;;;;22.97;100.00;101098.06;5008355;28;20045;-70
2023/11/01 09:52:00;;;;;;;15.77;8.80;;;;;;;22.94;100.00;101048.94;5016381;28;20029;-71
2023/11/01 09:54:25;;;;;;;15.45;10.23;;;;;;;23.65;100.00;101093.75;5014560;28;20041;-70
2023/11/01 09:56:54;;;;;;;12.93;8.80;;;;;;;23.74;100.00;101072.41;5012202;28;20045;-69
2023/11/01 09:59:20;;;;;;;14.75;8.10;;;;;;;23.17;100.00;101003.41;5005018;28;20052;-70
2023/11/01 10:01:45;;;;;;;14.82;8.38;;;;;;;23.13;100.00;100978.56;5013564;28;20548;-69
2023/11/01 10:04:11;;;;;;;14.70;8.93;;;;;;;22.97;100.00;100977.88;5015734;28;20037;-70
2023/11/01 10:06:36;;;;;;;14.57;8.13;;;;;;;23.66;100.00;100965.56;5015873;28;20033;-70
2023/11/01 10:09:03;;;;;;;13.30;8.05;;;;;;;23.44;100.00;100910.78;5021461;28;20389;-71
2023/11/01 10:11:28;;;;;;;14.52;8.02;;;;;;;23.10;100.00;100886.19;5006365;28;20034;-71
2023/11/01 10:13:54;;;;;;;12.93;8.20;;;;;;;23.91;100.00;100895.44;5016234;28;20053;-71
2023/11/01 10:16:19;;;;;;;14.60;7.45;;;;;;;23.28;100.00;100790.69;5019380;28;20514;-73
2023/11/01 10:18:47;;;;;;;10.20;6.95;;;;;;;23.76;100.00;100878.28;5016218;28;20093;-70
2023/11/01 10:21:13;;;;;;;13.57;7.45;;;;;;;23.94;100.00;100871.84;5015070;28;20116;-72
2023/11/01 10:23:38;;;;;;;14.35;7.15;;;;;;;23.29;100.00;100762.03;5004671;28;20128;-72
2023/11/01 10:26:04;;;;;;;11.23;6.85;;;;;;;23.54;100.00;100776.81;5014594;28;20029;-72
2023/11/01 10:28:39;;;;;;;12.32;7.30;;;;;;;23.51;100.00;100766.63;5023457;28;20495;-73
2023/11/01 10:31:04;;;;;;;10.10;6.70;;;;;;;23.86;100.00;100735.59;5006108;28;20137;-72
2023/11/01 10:33:33;;;;;;;11.95;6.85;;;;;;;23.92;100.00;100730.81;5013180;28;20556;-73
2023/11/01 10:36:00;;;;;;;13.70;7.10;;;;;;;24.08;100.00;100611.88;5003727;28;20410;-71
2023/11/01 10:38:26;;;;;;;11.25;6.97;;;;;;;23.89;100.00;100538.75;5016352;28;20477;-72
2023/11/01 10:40:52;;;;;;;11.25;6.68;;;;;;;24.08;100.00;100554.69;5018552;28;20491;-72
2023/11/01 10:43:19;;;;;;;11.25;6.07;;;;;;;23.35;100.00;100438.13;5014646;28;20030;-73
2023/11/01 10:45:48;;;;;;;10.57;5.97;;;;;;;24.50;100.00;100397.16;5007818;28;20041;-72
2023/11/01 10:48:15;;;;;;;10.57;5.60;;;;;;;23.92;100.00;100392.22;5017892;28;20037;-73
2023/11/01 10:50:43;;;;;;;9.35;5.93;;;;;;;24.04;100.00;100261.38;5016985;28;20033;-71
2023/11/01 10:53:11;;;;;;;14.25;7.60;;;;;;;24.51;100.00;100270.56;5018389;28;20032;-72
2023/11/01 10:55:37;;;;;;;15.35;9.80;;;;;;;24.29;100.00;100248.09;5014298;28;20516;-72